Time;durP1;ratioP1;P1;durP2;ratioP2;P2;SDS_P1;SDS_P2;PMS_P1;PMS_P2;Temp;Humidity;BMP_temperature;BMP_pressure;BME280_temperature;BME280_humidity;BME280_pressure;Samples;Min_cycle;Max_cycle;Signal;HPM_P1;HPM_P2
2020/12/20 00:00:15;;;;;;;5.17;2.87;;;9.60;99.90;;;;;;5022740;28;20222;-76
2020/12/20 00:02:52;;;;;;;7.20;2.87;;;9.60;99.90;;;;;;5019888;28;20208;-75
2020/12/20 00:05:20;;;;;;;4.03;2.37;;;9.60;99.90;;;;;;5020632;28;20207;-75
2020/12/20 00:07:48;;;;;;;6.30;2.63;;;9.60;99.90;;;;;;5016558;28;20257;-75
2020/12/20 00:10:16;;;;;;;7.10;2.97;;;9.70;99.90;;;;;;5022552;28;20231;-75
2020/12/20 00:12:43;;;;;;;5.93;2.60;;;9.70;99.90;;;;;;5019163;28;20263;-75
2020/12/20 00:15:09;;;;;;;5.77;2.63;;;9.70;99.90;;;;;;5023976;28;20259;-75
2020/12/20 00:17:36;;;;;;;5.10;2.43;;;9.70;99.90;;;;;;5019725;28;20734;-75
2020/12/20 00:20:06;;;;;;;4.57;2.80;;;9.60;99.90;;;;;;5013061;28;20293;-75
2020/12/20 00:22:32;;;;;;;4.13;2.27;;;9.70;99.90;;;;;;5025647;28;20414;-76
2020/12/20 00:24:59;;;;;;;6.80;2.60;;;9.70;99.90;;;;;;5016469;28;20663;-74
2020/12/20 00:27:26;;;;;;;6.17;3.03;;;9.70;99.90;;;;;;5025787;28;20235;-74
2020/12/20 00:29:52;;;;;;;3.20;2.47;;;9.70;99.90;;;;;;5016624;28;20260;-74
2020/12/20 00:32:19;;;;;;;2.67;1.80;;;9.70;99.90;;;;;;5012600;28;20248;-74
2020/12/20 00:34:45;;;;;;;6.63;2.33;;;9.80;99.90;;;;;;5033918;28;20628;-75
2020/12/20 00:37:13;;;;;;;5.30;2.80;;;9.70;99.90;;;;;;5002956;28;20196;-74
2020/12/20 00:39:39;;;;;;;7.60;2.67;;;9.70;99.90;;;;;;5024873;28;20291;-74
2020/12/20 00:42:07;;;;;;;5.10;2.87;;;9.70;99.90;;;;;;5015209;28;20195;-74
2020/12/20 00:44:34;;;;;;;8.20;2.77;;;9.70;99.90;;;;;;5004252;28;20231;-74
2020/12/20 00:47:02;;;;;;;6.77;2.60;;;9.70;99.90;;;;;;5019820;28;20208;-75
2020/12/20 00:49:30;;;;;;;9.03;2.53;;;9.60;99.90;;;;;;5024523;28;20201;-75
2020/12/20 00:51:59;;;;;;;5.97;2.63;;;9.60;99.90;;;;;;5018567;28;21455;-74
2020/12/20 00:54:26;;;;;;;5.30;2.60;;;9.50;99.90;;;;;;5021272;28;20300;-74
2020/12/20 00:56:53;;;;;;;6.33;3.23;;;9.50;99.90;;;;;;5019652;28;20201;-74
2020/12/20 00:59:20;;;;;;;5.83;3.20;;;9.40;99.90;;;;;;5016020;28;20571;-75
2020/12/20 01:01:47;;;;;;;6.93;3.00;;;9.40;99.90;;;;;;5018676;28;20644;-75
2020/12/20 01:04:13;;;;;;;5.23;2.80;;;9.40;99.90;;;;;;5020808;28;20200;-75
2020/12/20 01:06:39;;;;;;;6.93;2.80;;;9.40;99.90;;;;;;5032559;28;20273;-75
2020/12/20 01:09:07;;;;;;;4.80;2.90;;;9.40;99.90;;;;;;5007879;28;20200;-74
2020/12/20 01:11:33;;;;;;;5.53;2.97;;;9.40;99.90;;;;;;5011044;28;20224;-75
2020/12/20 01:14:01;;;;;;;7.80;2.90;;;9.40;99.90;;;;;;5030823;28;20212;-75
2020/12/20 01:16:31;;;;;;;3.83;2.63;;;9.40;99.90;;;;;;5012877;28;20215;-74
2020/12/20 01:18:59;;;;;;;6.77;2.87;;;9.40;99.90;;;;;;5014788;28;20648;-74
2020/12/20 01:21:25;;;;;;;4.60;2.87;;;9.30;99.90;;;;;;5024874;28;20277;-73
2020/12/20 01:23:52;;;;;;;6.53;3.20;;;9.40;99.90;;;;;;5020308;28;20253;-74
2020/12/20 01:26:21;;;;;;;7.73;3.10;;;9.30;99.90;;;;;;5000408;28;20267;-73
2020/12/20 01:28:48;;;;;;;9.23;3.70;;;9.40;99.90;;;;;;5020152;28;20668;-73
2020/12/20 01:31:15;;;;;;;5.77;3.30;;;9.30;99.90;;;;;;5020308;28;20208;-74
2020/12/20 01:33:42;;;;;;;4.63;2.70;;;9.30;99.90;;;;;;5025315;28;20294;-76
2020/12/20 01:36:10;;;;;;;6.97;3.00;;;9.20;99.90;;;;;;5006921;28;20231;-75
2020/12/20 01:38:37;;;;;;;6.50;3.23;;;9.20;99.90;;;;;;5002233;28;20350;-74
2020/12/20 01:41:05;;;;;;;5.97;3.30;;;9.30;99.90;;;;;;5019433;28;20235;-74
2020/12/20 01:43:48;;;;;;;6.10;2.83;;;9.40;99.90;;;;;;5010176;28;20562;-74
2020/12/20 01:46:20;;;;;;;3.60;3.00;;;9.40;99.90;;;;;;5017123;28;20570;-74
2020/12/20 01:48:47;;;;;;;4.70;2.80;;;9.30;99.90;;;;;;5023896;28;20216;-75
2020/12/20 01:51:14;;;;;;;6.17;2.57;;;9.30;99.90;;;;;;5023337;28;20280;-75
2020/12/20 01:53:41;;;;;;;7.20;3.03;;;9.40;99.90;;;;;;5020844;28;20621;-74
2020/12/20 01:56:08;;;;;;;5.03;2.93;;;9.30;99.90;;;;;;5027129;28;20568;-75
2020/12/20 01:58:37;;;;;;;6.83;2.87;;;9.30;99.90;;;;;;5007572;28;20212;-74
2020/12/20 02:01:05;;;;;;;4.17;2.20;;;9.30;99.90;;;;;;5021004;28;20215;-75
2020/12/20 02:03:32;;;;;;;4.50;2.60;;;9.30;99.90;;;;;;5020918;28;20648;-74
2020/12/20 02:06:00;;;;;;;6.63;3.20;;;9.30;99.90;;;;;;5022275;28;20233;-74
2020/12/20 02:08:27;;;;;;;5.43;2.70;;;9.30;99.90;;;;;;5018276;28;20286;-75
2020/12/20 02:11:11;;;;;;;4.33;2.47;;;9.30;99.90;;;;;;5009963;28;20393;-74
2020/12/20 02:13:49;;;;;;;6.60;2.97;;;9.30;99.90;;;;;;5019263;28;20205;-74
2020/12/20 02:16:17;;;;;;;5.83;2.10;;;9.40;99.90;;;;;;5026405;28;20282;-74
2020/12/20 02:18:44;;;;;;;7.53;2.20;;;9.40;99.90;;;;;;5009591;28;20235;-74
2020/12/20 02:21:16;;;;;;;6.63;2.40;;;9.30;99.90;;;;;;5020668;28;20582;-74
2020/12/20 02:23:47;;;;;;;7.80;2.43;;;9.40;99.90;;;;;;5025115;28;20288;-74
2020/12/20 02:26:15;;;;;;;3.27;2.37;;;9.40;99.90;;;;;;5019076;28;20628;-74
2020/12/20 02:28:42;;;;;;;2.77;2.07;;;9.40;99.90;;;;;;5019545;28;20225;-74
2020/12/20 02:31:08;;;;;;;3.53;2.27;;;9.40;99.90;;;;;;5014552;28;20242;-73
2020/12/20 02:33:35;;;;;;;8.43;2.43;;;9.40;99.90;;;;;;5020571;28;20237;-74
2020/12/20 02:36:03;;;;;;;5.20;2.47;;;9.40;99.90;;;;;;5022021;28;20202;-74
2020/12/20 02:38:30;;;;;;;11.13;2.43;;;9.40;99.90;;;;;;5014442;28;20252;-74
2020/12/20 02:40:57;;;;;;;5.00;2.40;;;9.40;99.90;;;;;;5051190;28;20327;-74
2020/12/20 02:43:23;;;;;;;4.60;2.20;;;9.50;99.90;;;;;;5002472;28;20266;-74
2020/12/20 02:45:50;;;;;;;7.37;2.90;;;9.40;99.90;;;;;;5018252;28;20215;-74
2020/12/20 02:48:16;;;;;;;7.17;2.70;;;9.40;99.90;;;;;;5040163;28;21051;-74
2020/12/20 02:50:43;;;;;;;6.93;2.23;;;9.40;99.90;;;;;;5021674;28;20200;-74
2020/12/20 02:53:09;;;;;;;5.53;3.10;;;9.40;99.90;;;;;;5016889;28;20231;-74
2020/12/20 02:55:35;;;;;;;4.53;2.10;;;9.40;99.90;;;;;;5019163;28;20239;-74
2020/12/20 02:58:03;;;;;;;5.83;2.37;;;9.50;99.90;;;;;;5025152;28;20301;-74
2020/12/20 03:00:31;;;;;;;6.27;2.60;;;9.40;99.90;;;;;;5014356;28;20236;-74
2020/12/20 03:02:58;;;;;;;6.30;3.00;;;9.40;99.90;;;;;;5020431;28;20199;-74
2020/12/20 03:05:24;;;;;;;6.70;2.50;;;9.40;99.90;;;;;;5010669;28;20204;-74
2020/12/20 03:07:50;;;;;;;4.13;2.03;;;9.40;99.90;;;;;;5015987;28;20243;-75
2020/12/20 03:10:17;;;;;;;6.93;2.77;;;9.40;99.90;;;;;;5008505;28;20229;-74
2020/12/20 03:12:44;;;;;;;4.40;2.50;;;9.40;99.90;;;;;;5012938;28;20210;-74
2020/12/20 03:15:11;;;;;;;5.50;2.33;;;9.40;99.90;;;;;;5023780;28;20212;-74
2020/12/20 03:17:38;;;;;;;5.03;2.50;;;9.40;99.90;;;;;;5023198;28;20354;-74
2020/12/20 03:20:05;;;;;;;7.37;2.33;;;9.40;99.90;;;;;;5025152;28;20710;-73
2020/12/20 03:22:32;;;;;;;4.67;2.23;;;9.40;99.90;;;;;;5026856;28;20269;-74
2020/12/20 03:24:59;;;;;;;6.30;2.67;;;9.40;99.90;;;;;;5007520;28;20246;-73
2020/12/20 03:27:25;;;;;;;4.57;2.20;;;9.40;99.90;;;;;;5019774;28;20200;-73
2020/12/20 03:29:51;;;;;;;5.20;2.50;;;9.40;99.90;;;;;;5033989;28;20209;-74
2020/12/20 03:32:17;;;;;;;8.60;2.50;;;9.40;99.90;;;;;;5025990;28;20212;-74
2020/12/20 03:34:44;;;;;;;3.80;2.00;;;9.40;99.90;;;;;;5006444;28;20600;-75
2020/12/20 03:37:10;;;;;;;4.93;2.70;;;9.40;99.90;;;;;;5014298;28;20212;-74
2020/12/20 03:39:37;;;;;;;6.13;2.50;;;9.40;99.90;;;;;;5030286;28;20199;-74
2020/12/20 03:42:03;;;;;;;9.23;2.47;;;9.50;99.90;;;;;;5039014;28;20252;-74
2020/12/20 03:44:29;;;;;;;5.23;2.87;;;9.50;99.90;;;;;;5038895;28;20209;-73
2020/12/20 03:46:55;;;;;;;6.73;2.43;;;9.40;99.90;;;;;;5011066;28;20243;-74
2020/12/20 03:49:23;;;;;;;3.83;2.40;;;9.50;99.90;;;;;;5001201;28;20267;-76
2020/12/20 03:51:49;;;;;;;6.97;2.73;;;9.40;99.90;;;;;;5010942;28;20280;-75
2020/12/20 03:54:16;;;;;;;4.00;2.37;;;9.40;99.90;;;;;;5024741;28;20272;-74
2020/12/20 03:56:42;;;;;;;6.97;3.03;;;9.40;99.90;;;;;;5016086;28;20257;-73
2020/12/20 03:59:09;;;;;;;3.93;2.20;;;9.40;99.90;;;;;;5009968;28;20644;-73
2020/12/20 04:01:35;;;;;;;2.93;1.80;;;9.40;99.90;;;;;;5008416;28;20221;-73
2020/12/20 04:04:02;;;;;;;8.27;2.33;;;9.40;99.90;;;;;;5020663;28;20565;-74
2020/12/20 04:06:28;;;;;;;4.50;2.57;;;9.30;99.90;;;;;;5016187;28;20669;-73
2020/12/20 04:08:55;;;;;;;4.97;2.17;;;9.30;99.90;;;;;;5037265;28;20856;-73
2020/12/20 04:11:21;;;;;;;3.57;2.10;;;9.30;99.90;;;;;;5006274;28;20281;-74
2020/12/20 04:13:47;;;;;;;4.90;2.17;;;9.30;99.90;;;;;;5020912;28;20257;-73
2020/12/20 04:16:14;;;;;;;5.77;2.07;;;9.40;99.90;;;;;;5021475;28;20227;-73
2020/12/20 04:18:40;;;;;;;5.03;2.47;;;9.30;99.90;;;;;;5010774;28;20246;-73
2020/12/20 04:21:07;;;;;;;11.33;2.70;;;9.30;99.90;;;;;;5011622;28;20671;-75
2020/12/20 04:23:33;;;;;;;5.10;2.13;;;9.30;99.90;;;;;;5019545;28;20656;-74
2020/12/20 04:26:00;;;;;;;4.83;2.43;;;9.40;99.90;;;;;;5021264;28;20196;-74
2020/12/20 04:28:27;;;;;;;3.73;2.03;;;9.30;99.90;;;;;;5006588;28;20211;-75
2020/12/20 04:30:53;;;;;;;5.00;1.93;;;9.30;99.90;;;;;;5034042;28;20561;-74
2020/12/20 04:33:19;;;;;;;5.07;2.17;;;9.40;99.90;;;;;;5009672;28;20580;-74
2020/12/20 04:35:46;;;;;;;5.47;2.30;;;9.40;99.90;;;;;;5017537;28;20209;-74
2020/12/20 04:38:12;;;;;;;5.33;3.00;;;9.30;99.90;;;;;;5031844;28;20647;-74
2020/12/20 04:40:38;;;;;;;4.47;2.33;;;9.30;99.90;;;;;;5005916;28;20216;-74
2020/12/20 04:43:07;;;;;;;3.77;2.00;;;9.30;99.90;;;;;;5008674;28;20720;-74
2020/12/20 04:45:34;;;;;;;3.93;2.40;;;9.30;99.90;;;;;;5016521;28;20224;-74
2020/12/20 04:48:00;;;;;;;6.37;2.30;;;9.20;99.90;;;;;;5015291;28;20235;-74
2020/12/20 04:50:29;;;;;;;5.97;2.03;;;9.20;99.90;;;;;;5039772;28;20235;-74
2020/12/20 04:52:57;;;;;;;4.43;2.13;;;9.20;99.90;;;;;;5010663;28;20688;-75
2020/12/20 04:55:24;;;;;;;4.53;2.23;;;9.30;99.90;;;;;;5018227;28;20243;-74
2020/12/20 04:57:52;;;;;;;6.70;2.50;;;9.20;99.90;;;;;;5022421;28;20208;-74
2020/12/20 05:00:19;;;;;;;4.90;2.27;;;9.30;99.90;;;;;;5027905;28;20284;-74
2020/12/20 05:02:46;;;;;;;7.33;2.60;;;9.20;99.90;;;;;;5015643;28;20223;-75
2020/12/20 05:05:13;;;;;;;4.33;2.13;;;9.20;99.90;;;;;;5017026;28;20770;-74
2020/12/20 05:07:41;;;;;;;4.53;2.60;;;9.20;99.90;;;;;;5016093;28;20580;-74
2020/12/20 05:10:08;;;;;;;5.07;2.13;;;9.20;99.90;;;;;;5023016;28;20255;-74
2020/12/20 05:12:36;;;;;;;2.90;2.17;;;9.10;99.90;;;;;;5014582;28;20291;-73
2020/12/20 05:15:24;;;;;;;7.93;2.03;;;9.10;99.90;;;;;;5007708;28;20209;-74
2020/12/20 05:18:23;;;;;;;4.00;2.17;;;9.20;99.90;;;;;;5018274;28;20277;-74
2020/12/20 05:20:51;;;;;;;4.13;2.07;;;9.10;99.90;;;;;;5004881;28;20574;-74
2020/12/20 05:23:17;;;;;;;6.67;2.43;;;9.10;99.90;;;;;;5016560;28;20225;-74
2020/12/20 05:25:44;;;;;;;3.30;2.17;;;9.20;99.90;;;;;;5011973;28;20656;-74
2020/12/20 05:28:17;;;;;;;4.07;2.80;;;9.20;99.90;;;;;;5022606;28;20245;-74
2020/12/20 05:30:45;;;;;;;3.30;1.93;;;9.10;99.90;;;;;;5026072;28;20201;-76
2020/12/20 05:33:27;;;;;;;8.13;2.53;;;9.20;99.90;;;;;;5021108;28;20288;-74
2020/12/20 05:36:02;;;;;;;4.83;2.40;;;9.20;99.90;;;;;;5020173;28;20215;-74
2020/12/20 05:38:29;;;;;;;6.13;2.63;;;9.10;99.90;;;;;;5019936;28;20241;-74
2020/12/20 05:40:56;;;;;;;7.13;2.30;;;9.20;99.90;;;;;;5023420;28;20876;-74
2020/12/20 05:43:24;;;;;;;4.93;2.33;;;9.20;99.90;;;;;;5023880;28;20249;-73
2020/12/20 05:45:51;;;;;;;4.83;2.00;;;9.20;99.90;;;;;;5026363;28;20242;-74
2020/12/20 05:48:23;;;;;;;3.17;1.93;;;9.20;99.90;;;;;;5023149;28;20281;-74
2020/12/20 05:50:51;;;;;;;5.30;3.03;;;9.20;99.90;;;;;;5026284;28;20650;-74
2020/12/20 05:53:29;;;;;;;3.73;2.33;;;9.10;99.90;;;;;;5021681;28;20223;-74
2020/12/20 05:56:00;;;;;;;9.27;2.50;;;9.10;99.90;;;;;;5013724;28;20221;-74
2020/12/20 05:58:32;;;;;;;7.13;2.63;;;9.00;99.90;;;;;;5021888;28;20283;-74
2020/12/20 06:00:59;;;;;;;6.30;3.23;;;9.00;99.90;;;;;;5028043;28;20228;-74
2020/12/20 06:03:26;;;;;;;3.10;1.83;;;9.00;99.90;;;;;;5011975;28;20300;-74
2020/12/20 06:05:53;;;;;;;5.47;2.60;;;9.00;99.90;;;;;;5008789;28;20244;-74
2020/12/20 06:08:23;;;;;;;7.57;2.40;;;9.00;99.90;;;;;;5029090;28;20232;-73
2020/12/20 06:10:52;;;;;;;5.93;2.57;;;8.90;99.90;;;;;;5024372;28;20222;-73
2020/12/20 06:13:21;;;;;;;4.37;2.63;;;8.80;99.90;;;;;;5017736;28;20220;-73
2020/12/20 06:15:55;;;;;;;10.20;3.10;;;8.80;99.90;;;;;;5036908;28;20204;-73
2020/12/20 06:18:23;;;;;;;3.77;2.40;;;8.90;99.90;;;;;;5021658;28;21185;-74
2020/12/20 06:20:52;;;;;;;5.63;2.63;;;8.80;99.90;;;;;;5012872;28;20223;-74
2020/12/20 06:23:21;;;;;;;4.87;2.47;;;8.80;99.90;;;;;;5018489;28;20910;-74
2020/12/20 06:25:49;;;;;;;6.87;2.80;;;8.80;99.90;;;;;;5027114;28;20267;-74
2020/12/20 06:28:17;;;;;;;5.73;2.60;;;8.80;99.90;;;;;;5022428;28;20216;-74
2020/12/20 06:30:45;;;;;;;3.03;1.90;;;8.80;99.90;;;;;;5020021;28;20222;-74
2020/12/20 06:33:32;;;;;;;8.37;2.20;;;8.90;99.90;;;;;;5024546;28;20208;-74
2020/12/20 06:36:02;;;;;;;4.73;2.30;;;8.90;99.90;;;;;;5013831;28;20540;-74
2020/12/20 06:38:29;;;;;;;8.47;2.80;;;8.90;99.90;;;;;;5026494;28;20219;-74
2020/12/20 06:40:56;;;;;;;7.13;2.50;;;8.90;99.90;;;;;;5036454;28;20225;-73
2020/12/20 06:43:36;;;;;;;3.30;2.13;;;8.90;99.90;;;;;;5023570;28;20202;-73
2020/12/20 06:46:06;;;;;;;5.83;2.20;;;8.80;99.90;;;;;;5030161;28;20196;-74
2020/12/20 06:48:35;;;;;;;6.43;2.67;;;8.80;99.90;;;;;;5022514;28;20270;-74
2020/12/20 06:51:30;;;;;;;6.67;2.70;;;8.80;99.90;;;;;;5022968;28;20654;-75
2020/12/20 06:53:57;;;;;;;3.30;2.30;;;8.80;99.90;;;;;;5020206;28;20214;-74
2020/12/20 06:56:25;;;;;;;4.33;2.60;;;9.00;99.90;;;;;;5048620;28;20226;-73
2020/12/20 06:58:52;;;;;;;7.40;2.60;;;8.90;99.90;;;;;;5011785;28;20682;-73
2020/12/20 07:01:36;;;;;;;5.17;2.73;;;8.90;99.90;;;;;;5016663;28;20228;-72
2020/12/20 07:04:04;;;;;;;3.93;2.27;;;8.90;99.90;;;;;;5023058;28;20240;-73
2020/12/20 07:06:30;;;;;;;5.33;2.20;;;8.80;99.90;;;;;;5021467;28;20562;-73
2020/12/20 07:09:06;;;;;;;8.77;2.83;;;8.80;99.90;;;;;;5023971;28;20196;-73
2020/12/20 07:11:51;;;;;;;7.83;2.83;;;8.90;99.90;;;;;;5020166;28;20352;-73
2020/12/20 07:14:20;;;;;;;6.03;2.07;;;8.80;99.90;;;;;;5029071;28;20582;-73
2020/12/20 07:16:46;;;;;;;14.03;3.60;;;8.90;99.90;;;;;;5026960;28;20807;-73
2020/12/20 07:19:23;;;;;;;4.37;2.73;;;8.70;99.90;;;;;;5019026;28;20223;-73
2020/12/20 07:21:52;;;;;;;3.80;2.33;;;8.80;99.90;;;;;;5017676;28;20247;-74
2020/12/20 07:24:20;;;;;;;4.37;2.27;;;8.80;99.90;;;;;;5034816;28;20200;-73
2020/12/20 07:26:48;;;;;;;7.87;2.57;;;8.80;99.90;;;;;;5017201;28;20253;-73
2020/12/20 07:29:16;;;;;;;6.10;2.80;;;8.80;99.90;;;;;;5022154;28;20270;-73
2020/12/20 07:31:45;;;;;;;7.07;2.53;;;8.80;99.90;;;;;;5022657;28;20344;-73
2020/12/20 07:34:11;;;;;;;5.13;2.43;;;8.70;99.90;;;;;;5048444;28;20298;-73
2020/12/20 07:36:38;;;;;;;6.97;2.20;;;8.70;99.90;;;;;;5012148;28;20232;-73
2020/12/20 07:39:06;;;;;;;7.40;2.63;;;8.70;99.90;;;;;;5011796;28;20304;-74
2020/12/20 07:41:33;;;;;;;5.50;2.23;;;8.70;99.90;;;;;;5032824;28;20251;-73
2020/12/20 07:44:04;;;;;;;11.33;2.73;;;8.60;99.90;;;;;;5035573;28;20224;-74
2020/12/20 07:46:31;;;;;;;7.20;3.30;;;8.70;99.90;;;;;;5011545;28;20619;-74
2020/12/20 07:49:27;;;;;;;8.40;2.50;;;8.70;99.90;;;;;;5015216;28;20226;-73
2020/12/20 07:51:53;;;;;;;5.23;2.07;;;8.70;99.90;;;;;;5023951;28;20224;-74
2020/12/20 07:54:19;;;;;;;7.73;2.60;;;8.70;99.90;;;;;;5020712;28;20200;-73
2020/12/20 07:56:47;;;;;;;4.83;2.40;;;8.80;99.90;;;;;;5021891;28;20375;-73
2020/12/20 07:59:16;;;;;;;7.40;2.60;;;8.70;99.90;;;;;;5023344;28;20263;-73
2020/12/20 08:01:45;;;;;;;5.33;2.00;;;8.70;99.90;;;;;;5017663;28;20213;-73
2020/12/20 08:04:14;;;;;;;7.20;2.10;;;8.70;99.90;;;;;;5023910;28;20209;-73
2020/12/20 08:06:46;;;;;;;9.63;2.40;;;8.70;99.90;;;;;;5027378;28;20243;-73
2020/12/20 08:09:16;;;;;;;10.73;3.40;;;8.70;99.90;;;;;;5033767;28;20725;-73
2020/12/20 08:11:43;;;;;;;3.03;2.23;;;8.80;99.90;;;;;;5015309;28;20303;-74
2020/12/20 08:14:15;;;;;;;7.37;2.57;;;8.80;99.90;;;;;;5035627;28;20277;-73
2020/12/20 08:16:50;;;;;;;5.27;2.97;;;8.70;99.90;;;;;;5035824;28;20274;-74
2020/12/20 08:19:25;;;;;;;3.63;1.90;;;8.80;99.90;;;;;;5018975;28;20562;-73
2020/12/20 08:22:11;;;;;;;5.80;2.50;;;8.80;99.90;;;;;;5035636;28;20218;-74
2020/12/20 08:24:42;;;;;;;4.37;2.17;;;8.70;99.90;;;;;;5037520;28;20201;-75
2020/12/20 08:27:15;;;;;;;7.60;3.03;;;8.70;99.90;;;;;;5024680;28;20606;-73
2020/12/20 08:29:46;;;;;;;8.00;2.40;;;8.70;99.90;;;;;;5016684;28;20291;-78
2020/12/20 08:32:18;;;;;;;6.87;2.43;;;8.70;99.90;;;;;;5004403;28;20730;-75
2020/12/20 08:34:44;;;;;;;9.07;2.63;;;8.70;99.90;;;;;;5008044;28;20208;-76
2020/12/20 08:37:19;;;;;;;8.57;2.47;;;8.70;99.90;;;;;;5018969;28;20212;-76
2020/12/20 08:39:46;;;;;;;8.20;2.60;;;8.70;99.90;;;;;;5017952;28;20209;-77
2020/12/20 08:42:14;;;;;;;10.57;3.13;;;8.70;99.90;;;;;;5019485;28;20263;-76
2020/12/20 08:44:45;;;;;;;6.77;2.90;;;8.70;99.90;;;;;;5008349;28;20244;-76
2020/12/20 08:47:19;;;;;;;6.07;2.40;;;8.70;99.90;;;;;;5018039;28;20532;-76
2020/12/20 08:49:59;;;;;;;8.97;3.07;;;8.70;99.90;;;;;;5020819;28;20594;-77
2020/12/20 08:52:30;;;;;;;10.73;3.00;;;8.80;99.90;;;;;;5029753;28;20220;-76
2020/12/20 08:55:02;;;;;;;7.17;2.60;;;8.80;99.90;;;;;;5021346;28;20202;-76
2020/12/20 08:57:33;;;;;;;3.37;1.80;;;8.80;99.90;;;;;;5012175;28;20354;-76
2020/12/20 09:00:26;;;;;;;3.50;2.30;;;8.90;99.90;;;;;;5033449;28;20265;-76
2020/12/20 09:03:03;;;;;;;11.03;2.87;;;8.80;99.90;;;;;;5020788;28;20277;-76
2020/12/20 09:05:31;;;;;;;3.50;2.50;;;8.90;99.90;;;;;;5020911;28;20954;-76
2020/12/20 09:07:58;;;;;;;7.67;2.50;;;8.90;99.90;;;;;;5021361;28;20235;-76
2020/12/20 09:10:31;;;;;;;12.17;3.10;;;8.90;99.90;;;;;;5022196;28;20694;-76
2020/12/20 09:13:00;;;;;;;10.37;4.10;;;8.90;99.90;;;;;;5024049;28;20199;-76
2020/12/20 09:15:29;;;;;;;10.27;2.50;;;8.90;99.90;;;;;;5039739;28;20724;-76
2020/12/20 09:18:01;;;;;;;7.67;2.27;;;9.00;99.90;;;;;;5024400;28;20655;-75
2020/12/20 09:20:29;;;;;;;12.43;3.63;;;9.00;99.90;;;;;;5019429;28;20635;-74
2020/12/20 09:23:00;;;;;;;8.20;2.30;;;9.00;99.90;;;;;;5024457;28;20302;-76
2020/12/20 09:25:30;;;;;;;5.50;2.50;;;9.00;99.90;;;;;;5026536;28;20232;-75
2020/12/20 09:28:00;;;;;;;8.00;3.10;;;9.00;99.90;;;;;;5024004;28;20571;-75
2020/12/20 09:30:33;;;;;;;7.63;2.20;;;9.00;99.90;;;;;;5024328;28;20297;-75
2020/12/20 09:33:00;;;;;;;9.20;2.73;;;9.00;99.90;;;;;;5020817;28;20265;-76
2020/12/20 09:35:27;;;;;;;10.37;2.70;;;9.00;99.90;;;;;;5027376;28;20223;-78
2020/12/20 09:37:54;;;;;;;8.23;2.23;;;9.00;99.90;;;;;;5025170;28;20210;-78
2020/12/20 09:40:20;;;;;;;8.40;2.60;;;9.00;99.90;;;;;;5040234;28;20198;-76
2020/12/20 09:42:47;;;;;;;9.97;2.30;;;9.10;99.90;;;;;;5021896;28;20283;-79
2020/12/20 09:45:13;;;;;;;9.27;3.00;;;9.10;99.90;;;;;;5017204;28;20315;-77
2020/12/20 09:47:42;;;;;;;4.47;2.17;;;9.20;99.90;;;;;;5027673;28;20292;-76
2020/12/20 09:50:09;;;;;;;5.57;2.77;;;9.10;99.90;;;;;;5025115;28;20230;-78
2020/12/20 09:52:37;;;;;;;4.83;2.10;;;9.20;99.90;;;;;;5022998;28;20269;-79
2020/12/20 09:55:05;;;;;;;8.90;2.67;;;9.10;99.90;;;;;;5021319;28;20208;-77
2020/12/20 09:57:32;;;;;;;11.67;2.77;;;9.20;99.90;;;;;;5020978;28;20610;-77
2020/12/20 09:59:58;;;;;;;19.13;3.57;;;9.20;99.90;;;;;;5006588;28;20218;-75
2020/12/20 10:02:24;;;;;;;7.43;2.70;;;9.20;99.90;;;;;;5016760;28;20220;-74
2020/12/20 10:04:51;;;;;;;8.83;3.23;;;9.20;99.90;;;;;;5018627;28;20689;-76
2020/12/20 10:07:17;;;;;;;7.63;2.87;;;9.20;99.90;;;;;;5015415;28;20234;-76
2020/12/20 10:09:44;;;;;;;7.80;3.07;;;9.20;99.90;;;;;;5002345;28;20204;-76
2020/12/20 10:12:11;;;;;;;9.57;2.60;;;9.20;99.90;;;;;;5022297;28;20211;-75
2020/12/20 10:14:37;;;;;;;7.93;2.50;;;9.30;99.90;;;;;;5007101;28;20242;-75
2020/12/20 10:17:03;;;;;;;8.03;2.23;;;9.50;99.90;;;;;;5020255;28;20275;-74
2020/12/20 10:19:29;;;;;;;12.37;3.10;;;9.60;99.90;;;;;;5019274;28;20274;-76
2020/12/20 10:21:56;;;;;;;8.90;2.53;;;9.60;99.90;;;;;;5010974;28;20223;-75
2020/12/20 10:24:22;;;;;;;10.90;2.60;;;9.50;99.90;;;;;;5005439;28;20198;-76
2020/12/20 10:26:49;;;;;;;9.13;2.43;;;9.50;99.90;;;;;;5023352;28;20213;-77
2020/12/20 10:29:17;;;;;;;6.10;2.40;;;9.60;99.90;;;;;;5023599;28;20783;-76
2020/12/20 10:31:45;;;;;;;7.50;2.80;;;9.70;99.90;;;;;;5007226;28;20252;-76
2020/12/20 10:34:12;;;;;;;10.43;2.27;;;9.70;99.90;;;;;;5020621;28;20670;-78
2020/12/20 10:36:39;;;;;;;10.27;2.90;;;9.70;99.90;;;;;;5023315;28;20212;-76
2020/12/20 10:39:07;;;;;;;12.03;2.90;;;9.70;99.90;;;;;;5030668;28;20314;-75
2020/12/20 10:41:35;;;;;;;8.93;2.60;;;9.80;99.90;;;;;;5020530;28;20293;-74
2020/12/20 10:44:02;;;;;;;15.13;3.00;;;9.80;99.90;;;;;;5023971;28;20216;-74
2020/12/20 10:46:28;;;;;;;8.60;2.77;;;9.80;99.90;;;;;;5013592;28;20337;-74
2020/12/20 10:48:55;;;;;;;13.00;3.30;;;9.90;99.90;;;;;;5015930;28;20202;-75
2020/12/20 10:51:22;;;;;;;8.57;3.10;;;9.90;99.90;;;;;;5020233;28;20295;-74
2020/12/20 10:53:50;;;;;;;9.03;3.07;;;10.00;99.90;;;;;;5008122;28;20628;-74
2020/12/20 10:56:18;;;;;;;6.53;2.70;;;9.90;99.90;;;;;;5017979;28;20208;-75
2020/12/20 10:58:50;;;;;;;6.33;2.53;;;9.90;99.90;;;;;;5021610;28;20215;-74
2020/12/20 11:01:20;;;;;;;6.80;3.00;;;9.90;99.90;;;;;;5013760;28;20238;-78
2020/12/20 11:03:48;;;;;;;10.17;3.00;;;9.90;99.90;;;;;;5021200;28;20215;-76
2020/12/20 11:06:18;;;;;;;14.43;4.17;;;9.90;99.90;;;;;;5031343;28;20224;-76
2020/12/20 11:08:45;;;;;;;11.83;2.93;;;9.90;99.90;;;;;;4993409;28;20190;-75
2020/12/20 11:11:13;;;;;;;7.43;2.53;;;9.90;99.90;;;;;;5018907;28;20555;-75
2020/12/20 11:13:42;;;;;;;6.67;2.90;;;9.90;99.90;;;;;;5002011;28;20223;-76
2020/12/20 11:16:16;;;;;;;7.83;3.00;;;10.00;99.90;;;;;;5023838;28;20636;-75
2020/12/20 11:18:45;;;;;;;9.00;2.80;;;9.90;99.90;;;;;;5011031;28;20247;-75
2020/12/20 11:21:19;;;;;;;13.27;2.77;;;9.90;99.90;;;;;;5017423;28;20291;-75
2020/12/20 11:23:47;;;;;;;7.30;2.90;;;9.90;99.90;;;;;;5011902;28;20205;-75
2020/12/20 11:26:18;;;;;;;10.90;3.20;;;9.90;99.90;;;;;;5019247;28;20682;-76
2020/12/20 11:28:48;;;;;;;12.37;2.90;;;10.00;99.90;;;;;;5030589;28;20207;-76
2020/12/20 11:31:17;;;;;;;6.50;2.50;;;10.10;99.90;;;;;;5020422;28;20602;-75
2020/12/20 11:33:44;;;;;;;9.93;2.67;;;10.20;99.90;;;;;;5019202;28;20277;-76
2020/12/20 11:36:18;;;;;;;13.33;2.80;;;10.20;99.90;;;;;;5011198;28;20699;-75
2020/12/20 11:38:45;;;;;;;10.50;3.67;;;10.20;99.90;;;;;;5021462;28;20392;-75
2020/12/20 11:41:11;;;;;;;9.83;2.50;;;10.20;99.90;;;;;;5021364;28;20224;-75
2020/12/20 11:43:38;;;;;;;3.40;2.20;;;10.10;99.90;;;;;;5017234;28;20291;-75
2020/12/20 11:46:05;;;;;;;9.87;3.00;;;10.10;99.90;;;;;;5018152;28;21010;-75
2020/12/20 11:48:32;;;;;;;6.80;2.30;;;10.10;99.90;;;;;;5002818;28;20205;-75
2020/12/20 11:50:58;;;;;;;12.20;3.10;;;10.20;99.90;;;;;;5018138;28;20213;-75
2020/12/20 11:53:28;;;;;;;11.73;2.80;;;10.20;99.90;;;;;;5019819;28;20844;-76
2020/12/20 11:56:13;;;;;;;13.33;2.50;;;10.20;99.90;;;;;;5017376;28;20286;-76
2020/12/20 11:58:40;;;;;;;9.40;3.00;;;10.30;99.90;;;;;;5015228;28;20204;-74
2020/12/20 12:01:07;;;;;;;7.77;2.93;;;10.30;99.90;;;;;;5020953;28;20670;-75
2020/12/20 12:03:34;;;;;;;9.27;2.70;;;10.30;99.90;;;;;;5004223;28;22421;-76
2020/12/20 12:06:01;;;;;;;4.13;1.97;;;10.40;99.90;;;;;;5015394;28;20216;-76
2020/12/20 12:08:28;;;;;;;11.17;2.93;;;10.30;99.90;;;;;;5006248;28;20300;-76
2020/12/20 12:10:54;;;;;;;13.57;3.00;;;10.30;99.90;;;;;;5021079;28;20208;-76
2020/12/20 12:13:21;;;;;;;8.33;2.50;;;10.40;99.90;;;;;;5021288;28;20266;-76
2020/12/20 12:15:47;;;;;;;10.67;2.97;;;10.30;99.90;;;;;;5010965;28;20206;-77
2020/12/20 12:18:14;;;;;;;7.53;2.33;;;10.30;99.90;;;;;;5014599;28;20722;-75
2020/12/20 12:20:41;;;;;;;6.70;2.40;;;10.40;99.90;;;;;;5020356;28;20199;-76
2020/12/20 12:23:08;;;;;;;8.47;3.37;;;10.40;99.90;;;;;;5021173;28;20247;-76
2020/12/20 12:25:34;;;;;;;4.23;2.23;;;10.40;99.90;;;;;;5026218;28;20260;-76
2020/12/20 12:28:01;;;;;;;5.73;2.60;;;10.40;99.90;;;;;;5006649;28;20199;-77
2020/12/20 12:30:27;;;;;;;9.60;3.00;;;10.40;99.90;;;;;;5015994;28;20223;-76
2020/12/20 12:32:54;;;;;;;8.50;2.90;;;10.40;99.90;;;;;;5052343;28;20200;-77
2020/12/20 12:35:23;;;;;;;11.93;3.83;;;10.30;99.90;;;;;;5016745;28;20246;-76
2020/12/20 12:37:51;;;;;;;13.40;3.27;;;10.30;99.90;;;;;;5016717;28;20199;-76
2020/12/20 12:40:20;;;;;;;12.40;2.30;;;10.30;99.90;;;;;;5016401;28;20203;-78
2020/12/20 12:42:47;;;;;;;8.57;3.37;;;10.40;99.90;;;;;;5002385;28;20246;-76
2020/12/20 12:45:14;;;;;;;11.30;2.50;;;10.40;99.90;;;;;;5006102;28;20251;-76
2020/12/20 12:47:42;;;;;;;7.17;2.00;;;10.50;99.90;;;;;;5017035;28;20205;-76
2020/12/20 12:50:09;;;;;;;9.80;2.93;;;10.50;99.90;;;;;;5020583;28;21239;-76
2020/12/20 12:52:35;;;;;;;10.33;2.40;;;10.80;99.90;;;;;;5017215;28;20300;-75
2020/12/20 12:55:04;;;;;;;10.33;2.37;;;11.10;99.90;;;;;;5008803;28;21070;-75
2020/12/20 12:57:30;;;;;;;13.97;3.07;;;11.40;99.90;;;;;;5017427;28;20257;-75
2020/12/20 12:59:58;;;;;;;9.53;2.33;;;11.50;99.90;;;;;;5016812;28;20227;-78
2020/12/20 13:02:24;;;;;;;14.60;3.13;;;11.50;99.90;;;;;;5032564;28;20332;-77